createdAt,value
2023-01-19T00:00:05.094Z,9.7
2023-01-19T00:05:05.091Z,10.3
2023-01-19T00:10:05.089Z,10.3
2023-01-19T00:15:05.083Z,9.9
2023-01-19T00:20:05.091Z,11.4
2023-01-19T00:25:05.089Z,11.3
2023-01-19T00:30:05.086Z,11.3
2023-01-19T00:35:05.083Z,11.8
2023-01-19T00:40:05.080Z,10.8
2023-01-19T00:45:05.091Z,9.6
2023-01-19T00:50:05.084Z,9.7
2023-01-19T00:55:05.093Z,10
2023-01-19T01:00:05.083Z,10
2023-01-19T01:05:05.087Z,10.2
2023-01-19T01:10:05.089Z,11.1
2023-01-19T01:15:05.089Z,9.5
2023-01-19T01:20:05.098Z,10
2023-01-19T01:25:05.092Z,10.3
2023-01-19T01:30:05.089Z,10.3
2023-01-19T01:35:05.088Z,10.3
2023-01-19T01:40:05.094Z,10.5
2023-01-19T01:45:05.087Z,10.1
2023-01-19T01:50:05.080Z,10.5
2023-01-19T01:55:05.088Z,10.5
2023-01-19T02:00:05.083Z,10.5
2023-01-19T02:05:05.091Z,12.2
2023-01-19T02:10:05.088Z,11.6
2023-01-19T02:15:05.084Z,12.2
2023-01-19T02:20:05.082Z,11.2
2023-01-19T02:25:05.087Z,12.4
2023-01-19T02:30:05.105Z,12.4
2023-01-19T02:35:05.089Z,12.4
2023-01-19T02:40:05.098Z,13.1
2023-01-19T02:45:05.088Z,13.5
2023-01-19T02:50:05.084Z,12.8
2023-01-19T02:55:05.096Z,11.8
2023-01-19T03:00:05.082Z,11.8
2023-01-19T03:05:05.912Z,13.2
2023-01-19T03:10:05.086Z,11.8
2023-01-19T03:15:05.104Z,12.5
2023-01-19T03:20:05.086Z,13.5
2023-01-19T03:25:05.091Z,12.1
2023-01-19T03:30:05.091Z,12.1
2023-01-19T03:35:05.090Z,13.2
2023-01-19T03:40:05.079Z,13.2
2023-01-19T03:45:05.078Z,13.1
2023-01-19T03:50:05.157Z,12.4
2023-01-19T03:55:05.093Z,10.8
2023-01-19T04:00:05.094Z,10.8
2023-01-19T04:05:05.128Z,11.9
2023-01-19T04:10:05.098Z,13.3
2023-01-19T04:15:05.084Z,12.4
2023-01-19T04:20:05.093Z,11.5
2023-01-19T04:25:05.097Z,12.2
2023-01-19T04:30:05.083Z,12.2
2023-01-19T04:35:05.091Z,11.6
2023-01-19T04:40:05.092Z,12.7
2023-01-19T04:45:05.096Z,11.4
2023-01-19T04:50:05.094Z,12.8
2023-01-19T04:55:05.096Z,13.9
2023-01-19T05:00:05.084Z,13.9
2023-01-19T05:05:05.103Z,13.5
2023-01-19T05:10:05.096Z,14.3
2023-01-19T05:15:05.090Z,14.4
2023-01-19T05:20:05.090Z,14.5
2023-01-19T05:25:05.093Z,15.3
2023-01-19T05:30:05.088Z,15.3
2023-01-19T05:35:05.089Z,15.7
2023-01-19T05:40:05.080Z,14.8
2023-01-19T05:45:05.092Z,15.5
2023-01-19T05:50:05.142Z,15.1
2023-01-19T05:55:05.087Z,15.1
2023-01-19T06:00:05.084Z,15.1
2023-01-19T06:05:05.091Z,14.5
2023-01-19T06:10:05.085Z,12.9
2023-01-19T06:15:05.095Z,15.3
2023-01-19T06:20:05.087Z,15.6
2023-01-19T06:25:05.084Z,14.8
2023-01-19T06:30:05.082Z,14.8
2023-01-19T06:35:05.086Z,13.9
2023-01-19T06:40:05.081Z,15.7
2023-01-19T06:45:05.115Z,17
2023-01-19T06:50:05.443Z,17.5
2023-01-19T06:55:05.088Z,17.3
2023-01-19T07:00:05.091Z,17.3
2023-01-19T07:05:05.084Z,15.6
2023-01-19T07:10:05.099Z,14.6
2023-01-19T07:15:05.082Z,17.1
2023-01-19T07:20:05.080Z,16.8
2023-01-19T07:25:05.098Z,15.8
2023-01-19T07:30:05.096Z,15.8
2023-01-19T07:35:05.092Z,15
2023-01-19T07:40:05.086Z,15.5
2023-01-19T07:45:05.114Z,14.7
2023-01-19T07:50:05.085Z,14.7
2023-01-19T07:55:05.083Z,15.5
2023-01-19T08:00:05.087Z,15.5
2023-01-19T08:05:05.090Z,10.3
2023-01-19T08:10:05.091Z,9.7
2023-01-19T08:15:05.080Z,10.1
2023-01-19T08:20:05.096Z,11.2
2023-01-19T08:25:05.094Z,11.1
2023-01-19T08:30:05.081Z,11.1
2023-01-19T08:35:05.089Z,15.1
2023-01-19T08:40:05.078Z,15.4
2023-01-19T08:45:05.080Z,14.3
2023-01-19T08:50:05.085Z,13.9
2023-01-19T08:55:05.127Z,15.4
2023-01-19T09:00:05.079Z,15.4
2023-01-19T09:05:05.085Z,15.6
2023-01-19T09:10:05.087Z,16.5
2023-01-19T09:15:05.108Z,16.7
2023-01-19T09:20:05.080Z,16.4
2023-01-19T09:25:05.089Z,16.6
2023-01-19T09:30:05.080Z,16.6
2023-01-19T09:35:05.089Z,15.9
2023-01-19T09:40:05.143Z,15.6
2023-01-19T09:45:05.139Z,16.1
2023-01-19T09:50:05.137Z,13.4
2023-01-19T09:55:05.405Z,13.1
2023-01-19T10:00:05.090Z,13.1
2023-01-19T10:05:05.091Z,12.8
2023-01-19T10:10:05.091Z,13.1
2023-01-19T10:15:05.150Z,13
2023-01-19T10:20:05.079Z,12.7
2023-01-19T10:25:05.117Z,12.1
2023-01-19T10:30:05.081Z,12.1
2023-01-19T10:35:05.095Z,11.5
2023-01-19T10:40:05.111Z,10.9
2023-01-19T10:45:05.094Z,11.2
2023-01-19T10:50:05.123Z,10.8
2023-01-19T10:55:05.134Z,11
2023-01-19T11:00:05.085Z,11
2023-01-19T11:05:05.089Z,11.3
2023-01-19T11:10:05.094Z,10
2023-01-19T11:15:05.081Z,10.3
2023-01-19T11:20:05.083Z,9.3
2023-01-19T11:25:05.115Z,8.9
2023-01-19T11:30:05.090Z,8.9
2023-01-19T11:35:05.087Z,8.2
2023-01-19T11:40:05.081Z,8.5
2023-01-19T11:45:05.085Z,7.9
2023-01-19T11:50:05.088Z,8.5
2023-01-19T11:55:05.089Z,8.1
2023-01-19T12:00:05.085Z,8.1
2023-01-19T12:05:05.101Z,7.9
2023-01-19T12:10:05.085Z,8.1
2023-01-19T12:15:05.097Z,7.8
2023-01-19T12:20:05.115Z,8.2
2023-01-19T12:25:05.094Z,8.6
2023-01-19T12:30:05.097Z,8.6
2023-01-19T12:35:05.108Z,9
2023-01-19T12:40:05.089Z,8.7
2023-01-19T12:45:05.084Z,9
2023-01-19T12:50:05.084Z,8.4
2023-01-19T12:55:05.086Z,8.7
2023-01-19T13:00:05.084Z,8.7
2023-01-19T13:05:05.094Z,8.8
2023-01-19T13:10:05.084Z,8.5
2023-01-19T13:15:05.103Z,9.1
2023-01-19T13:20:05.093Z,9.2
2023-01-19T13:25:05.099Z,8.5
2023-01-19T13:30:05.098Z,8.5
2023-01-19T13:35:05.087Z,9.3
2023-01-19T13:40:05.116Z,9
2023-01-19T13:45:05.088Z,9.6
2023-01-19T13:50:05.097Z,9.3
2023-01-19T13:55:05.517Z,8.9
2023-01-19T14:00:05.106Z,8.9
2023-01-19T14:05:05.087Z,9.9
2023-01-19T14:10:05.435Z,8.6
2023-01-19T14:15:05.404Z,9.3
2023-01-19T14:20:05.223Z,9.1
2023-01-19T14:25:05.311Z,9.9
2023-01-19T14:30:05.087Z,9.9
2023-01-19T14:35:05.315Z,10.4
2023-01-19T14:40:05.091Z,10.3
2023-01-19T14:45:05.292Z,9.4
2023-01-19T14:50:05.091Z,10.9
2023-01-19T14:55:05.290Z,10.2
2023-01-19T15:00:05.085Z,10.2
2023-01-19T15:05:05.233Z,10.7
2023-01-19T15:10:05.103Z,10.9
2023-01-19T15:15:05.143Z,10.7
2023-01-19T15:20:05.090Z,11
2023-01-19T15:25:05.124Z,12
2023-01-19T15:30:05.091Z,12
2023-01-19T15:35:05.098Z,10.9
2023-01-19T15:40:05.167Z,11.1
2023-01-19T15:45:05.098Z,11.5
2023-01-19T15:50:05.144Z,11.4
2023-01-19T15:55:05.090Z,11.5
2023-01-19T16:00:05.114Z,11.5
2023-01-19T16:05:05.098Z,12.1
2023-01-19T16:10:05.136Z,12.4
2023-01-19T16:15:05.084Z,12.9
2023-01-19T16:20:05.083Z,13.5
2023-01-19T16:25:05.099Z,13.2
2023-01-19T16:30:05.114Z,13.2
2023-01-19T16:35:05.081Z,14.4
2023-01-19T16:40:05.090Z,14.8
2023-01-19T16:45:05.091Z,14.8
2023-01-19T16:50:05.085Z,15.6
2023-01-19T16:55:05.082Z,14.5
2023-01-19T17:00:05.090Z,14.5
2023-01-19T17:05:05.085Z,14.3
2023-01-19T17:10:05.077Z,15
2023-01-19T17:15:05.087Z,15.5
2023-01-19T17:20:05.115Z,16.1
2023-01-19T17:25:05.093Z,16
2023-01-19T17:30:05.088Z,16
2023-01-19T17:35:05.089Z,15.2
2023-01-19T17:40:05.083Z,15.8
2023-01-19T17:45:05.097Z,16.7
2023-01-19T17:50:05.118Z,16.9
2023-01-19T17:55:05.083Z,16.7
2023-01-19T18:00:05.091Z,16.7
2023-01-19T18:05:05.089Z,16
2023-01-19T18:10:05.082Z,17.4
2023-01-19T18:15:05.089Z,17.8
2023-01-19T18:20:05.091Z,16.3
2023-01-19T18:25:05.089Z,18.9
2023-01-19T18:30:05.104Z,18.9
2023-01-19T18:35:05.095Z,19.8
2023-01-19T18:40:05.099Z,19.4
2023-01-19T18:45:05.091Z,20
2023-01-19T18:50:05.091Z,21
2023-01-19T18:55:05.089Z,21.3
2023-01-19T19:00:05.084Z,21.3
2023-01-19T19:05:05.093Z,18.8
2023-01-19T19:10:05.084Z,19
2023-01-19T19:15:05.087Z,17.3
2023-01-19T19:20:05.079Z,16.7
2023-01-19T19:25:05.096Z,17.3
2023-01-19T19:30:05.083Z,17.3
2023-01-19T19:35:05.078Z,17.1
2023-01-19T19:40:05.081Z,16.4
2023-01-19T19:45:05.088Z,15.4
2023-01-19T19:50:05.084Z,17.1
2023-01-19T19:55:05.116Z,17.2
2023-01-19T20:00:05.115Z,17.2
2023-01-19T20:05:05.186Z,16.2
2023-01-19T20:10:05.087Z,17.4
2023-01-19T20:15:05.107Z,16.6
2023-01-19T20:20:05.082Z,17
2023-01-19T20:25:05.102Z,15.9
2023-01-19T20:30:05.088Z,15.9
2023-01-19T20:35:05.092Z,15.3
2023-01-19T20:40:05.086Z,15
2023-01-19T20:45:05.087Z,15.1
2023-01-19T20:50:05.081Z,17.2
2023-01-19T20:55:05.104Z,23.7
2023-01-19T21:00:05.086Z,23.7
2023-01-19T21:05:05.095Z,16.7
2023-01-19T21:10:05.085Z,15.4
2023-01-19T21:15:05.088Z,16.5
2023-01-19T21:20:05.079Z,14.9
2023-01-19T21:25:05.091Z,17.4
2023-01-19T21:30:05.082Z,17.4
2023-01-19T21:35:05.093Z,19.9
2023-01-19T21:40:05.083Z,17.7
2023-01-19T21:45:05.077Z,18
2023-01-19T21:50:05.099Z,23.2
2023-01-19T21:55:05.089Z,16.9
2023-01-19T22:00:05.077Z,16.9
2023-01-19T22:05:05.082Z,20.6
2023-01-19T22:10:05.099Z,18.6
2023-01-19T22:15:05.091Z,19.5
2023-01-19T22:20:05.092Z,18.5
2023-01-19T22:25:06.026Z,23.6
2023-01-19T22:30:05.079Z,23.6
2023-01-19T22:35:05.087Z,23.9
2023-01-19T22:40:05.087Z,26.1
2023-01-19T22:45:05.085Z,21.8
2023-01-19T22:50:05.083Z,23
2023-01-19T22:55:05.089Z,22.3
2023-01-19T23:00:05.082Z,22.3
2023-01-19T23:05:05.088Z,24.2
2023-01-19T23:10:05.078Z,24.3
2023-01-19T23:15:05.087Z,23.5
2023-01-19T23:20:05.085Z,23.2
2023-01-19T23:25:05.084Z,22.2
2023-01-19T23:30:05.076Z,22.2
2023-01-19T23:35:05.085Z,23.6
2023-01-19T23:40:05.089Z,20.5
2023-01-19T23:45:05.081Z,24.3
2023-01-19T23:50:05.084Z,22.6
2023-01-19T23:55:05.083Z,21.6
